sensor_id;sensor_type;location;lat;lon;timestamp;temperature;humidity
1391;DHT22;690;51.454;7.194;2024-01-30T00:01:53;7.10;1.00
1391;DHT22;690;51.454;7.194;2024-01-30T00:04:21;7.00;1.00
1391;DHT22;690;51.454;7.194;2024-01-30T00:06:48;7.00;1.00
1391;DHT22;690;51.454;7.194;2024-01-30T00:09:15;7.00;1.00
1391;DHT22;690;51.454;7.194;2024-01-30T00:11:42;7.10;1.00
1391;DHT22;690;51.454;7.194;2024-01-30T00:14:09;7.00;1.00
1391;DHT22;690;51.454;7.194;2024-01-30T00:16:36;7.00;1.00
1391;DHT22;690;51.454;7.194;2024-01-30T00:19:03;7.00;1.00
1391;DHT22;690;51.454;7.194;2024-01-30T00:21:31;7.00;1.00
1391;DHT22;690;51.454;7.194;2024-01-30T00:23:58;7.00;1.00
1391;DHT22;690;51.454;7.194;2024-01-30T00:26:25;7.00;1.00
1391;DHT22;690;51.454;7.194;2024-01-30T00:28:52;7.00;1.00
1391;DHT22;690;51.454;7.194;2024-01-30T00:31:19;7.00;1.00
1391;DHT22;690;51.454;7.194;2024-01-30T00:33:46;7.00;1.00
1391;DHT22;690;51.454;7.194;2024-01-30T00:36:13;7.00;1.00
1391;DHT22;690;51.454;7.194;2024-01-30T00:38:41;6.90;1.00
1391;DHT22;690;51.454;7.194;2024-01-30T00:41:11;7.00;1.00
1391;DHT22;690;51.454;7.194;2024-01-30T00:43:38;7.00;1.00
1391;DHT22;690;51.454;7.194;2024-01-30T00:46:05;6.90;1.00
1391;DHT22;690;51.454;7.194;2024-01-30T00:48:32;7.00;1.00
1391;DHT22;690;51.454;7.194;2024-01-30T00:50:59;6.90;1.00
1391;DHT22;690;51.454;7.194;2024-01-30T00:53:26;7.00;1.00
1391;DHT22;690;51.454;7.194;2024-01-30T00:55:54;7.00;1.00
1391;DHT22;690;51.454;7.194;2024-01-30T00:58:21;7.00;1.00
1391;DHT22;690;51.454;7.194;2024-01-30T01:00:48;7.00;1.00
1391;DHT22;690;51.454;7.194;2024-01-30T01:03:15;7.10;1.00
1391;DHT22;690;51.454;7.194;2024-01-30T01:05:42;7.10;1.00
1391;DHT22;690;51.454;7.194;2024-01-30T01:08:09;7.10;1.00
1391;DHT22;690;51.454;7.194;2024-01-30T01:10:36;7.10;1.00
1391;DHT22;690;51.454;7.194;2024-01-30T01:13:04;7.10;1.00
1391;DHT22;690;51.454;7.194;2024-01-30T01:15:31;7.10;1.00
1391;DHT22;690;51.454;7.194;2024-01-30T01:17:58;7.20;1.00
1391;DHT22;690;51.454;7.194;2024-01-30T01:20:25;7.20;1.00
1391;DHT22;690;51.454;7.194;2024-01-30T01:22:52;7.20;1.00
1391;DHT22;690;51.454;7.194;2024-01-30T01:25:19;7.20;1.00
1391;DHT22;690;51.454;7.194;2024-01-30T01:27:46;7.20;1.00
1391;DHT22;690;51.454;7.194;2024-01-30T01:30:18;7.20;1.00
1391;DHT22;690;51.454;7.194;2024-01-30T01:32:48;7.10;1.00
1391;DHT22;690;51.454;7.194;2024-01-30T01:35:21;7.20;1.00
1391;DHT22;690;51.454;7.194;2024-01-30T01:37:48;7.20;1.00
1391;DHT22;690;51.454;7.194;2024-01-30T01:40:21;7.10;1.00
1391;DHT22;690;51.454;7.194;2024-01-30T01:42:49;7.10;1.00
1391;DHT22;690;51.454;7.194;2024-01-30T01:45:18;7.20;1.00
1391;DHT22;690;51.454;7.194;2024-01-30T01:47:47;7.10;1.00
1391;DHT22;690;51.454;7.194;2024-01-30T01:50:16;7.20;1.00
1391;DHT22;690;51.454;7.194;2024-01-30T01:52:44;7.10;1.00
1391;DHT22;690;51.454;7.194;2024-01-30T01:55:11;7.20;1.00
1391;DHT22;690;51.454;7.194;2024-01-30T01:57:39;7.20;1.00
1391;DHT22;690;51.454;7.194;2024-01-30T02:00:07;7.20;1.00
1391;DHT22;690;51.454;7.194;2024-01-30T02:02:37;7.20;1.00
1391;DHT22;690;51.454;7.194;2024-01-30T02:05:06;7.20;1.00
1391;DHT22;690;51.454;7.194;2024-01-30T02:07:33;7.20;1.00
1391;DHT22;690;51.454;7.194;2024-01-30T02:10:00;7.20;1.00
1391;DHT22;690;51.454;7.194;2024-01-30T02:12:27;7.20;1.00
1391;DHT22;690;51.454;7.194;2024-01-30T02:14:54;7.20;1.00
1391;DHT22;690;51.454;7.194;2024-01-30T02:17:21;7.20;1.00
1391;DHT22;690;51.454;7.194;2024-01-30T02:19:50;7.10;1.00
1391;DHT22;690;51.454;7.194;2024-01-30T02:22:19;7.20;1.00
1391;DHT22;690;51.454;7.194;2024-01-30T02:24:46;7.10;1.00
1391;DHT22;690;51.454;7.194;2024-01-30T02:27:13;7.10;1.00
1391;DHT22;690;51.454;7.194;2024-01-30T02:29:40;7.10;1.00
1391;DHT22;690;51.454;7.194;2024-01-30T02:32:07;7.10;1.00
1391;DHT22;690;51.454;7.194;2024-01-30T02:34:34;7.10;1.00
1391;DHT22;690;51.454;7.194;2024-01-30T02:37:02;7.10;1.00
1391;DHT22;690;51.454;7.194;2024-01-30T02:39:31;7.10;1.00
1391;DHT22;690;51.454;7.194;2024-01-30T02:41:58;7.10;1.00
1391;DHT22;690;51.454;7.194;2024-01-30T02:44:25;7.00;1.00
1391;DHT22;690;51.454;7.194;2024-01-30T02:46:51;7.00;1.00
1391;DHT22;690;51.454;7.194;2024-01-30T02:49:19;7.00;1.00
1391;DHT22;690;51.454;7.194;2024-01-30T02:51:46;7.00;1.00
1391;DHT22;690;51.454;7.194;2024-01-30T02:54:13;7.00;1.00
1391;DHT22;690;51.454;7.194;2024-01-30T02:56:42;7.00;1.00
1391;DHT22;690;51.454;7.194;2024-01-30T02:59:08;7.00;1.00
1391;DHT22;690;51.454;7.194;2024-01-30T03:01:42;7.00;1.00
1391;DHT22;690;51.454;7.194;2024-01-30T03:04:09;7.00;1.00
1391;DHT22;690;51.454;7.194;2024-01-30T03:06:36;7.00;1.00
1391;DHT22;690;51.454;7.194;2024-01-30T03:09:03;7.00;1.00
1391;DHT22;690;51.454;7.194;2024-01-30T03:11:31;6.90;1.00
1391;DHT22;690;51.454;7.194;2024-01-30T03:13:58;7.00;1.00
1391;DHT22;690;51.454;7.194;2024-01-30T03:16:25;7.00;1.00
1391;DHT22;690;51.454;7.194;2024-01-30T03:18:52;7.00;1.00
1391;DHT22;690;51.454;7.194;2024-01-30T03:21:18;7.10;1.00
1391;DHT22;690;51.454;7.194;2024-01-30T03:23:45;7.10;1.00
1391;DHT22;690;51.454;7.194;2024-01-30T03:26:12;7.10;1.00
1391;DHT22;690;51.454;7.194;2024-01-30T03:28:40;7.10;1.00
1391;DHT22;690;51.454;7.194;2024-01-30T03:31:09;7.10;1.00
1391;DHT22;690;51.454;7.194;2024-01-30T03:33:37;7.10;1.00
1391;DHT22;690;51.454;7.194;2024-01-30T03:36:05;7.10;1.00
1391;DHT22;690;51.454;7.194;2024-01-30T03:38:32;7.10;1.00
1391;DHT22;690;51.454;7.194;2024-01-30T03:40:59;7.20;1.00
1391;DHT22;690;51.454;7.194;2024-01-30T03:43:26;7.10;1.00
1391;DHT22;690;51.454;7.194;2024-01-30T03:45:53;7.10;1.00
1391;DHT22;690;51.454;7.194;2024-01-30T03:48:21;7.10;1.00
1391;DHT22;690;51.454;7.194;2024-01-30T03:50:48;7.10;1.00
1391;DHT22;690;51.454;7.194;2024-01-30T03:53:15;7.10;1.00
1391;DHT22;690;51.454;7.194;2024-01-30T03:55:42;7.20;1.00
1391;DHT22;690;51.454;7.194;2024-01-30T03:58:09;7.20;1.00
1391;DHT22;690;51.454;7.194;2024-01-30T04:00:36;7.20;1.00
1391;DHT22;690;51.454;7.194;2024-01-30T04:03:03;7.20;1.00
1391;DHT22;690;51.454;7.194;2024-01-30T04:05:31;7.30;1.00
1391;DHT22;690;51.454;7.194;2024-01-30T04:07:59;7.30;1.00
1391;DHT22;690;51.454;7.194;2024-01-30T04:10:26;7.30;1.00
1391;DHT22;690;51.454;7.194;2024-01-30T04:12:53;7.30;1.00
1391;DHT22;690;51.454;7.194;2024-01-30T04:15:20;7.30;1.00
1391;DHT22;690;51.454;7.194;2024-01-30T04:17:47;7.30;1.00
1391;DHT22;690;51.454;7.194;2024-01-30T04:20:14;7.30;1.00
1391;DHT22;690;51.454;7.194;2024-01-30T04:22:43;7.30;1.00
1391;DHT22;690;51.454;7.194;2024-01-30T04:25:11;7.30;1.00
1391;DHT22;690;51.454;7.194;2024-01-30T04:27:37;7.30;1.00
1391;DHT22;690;51.454;7.194;2024-01-30T04:30:05;7.30;1.00
1391;DHT22;690;51.454;7.194;2024-01-30T04:32:33;7.30;1.00
1391;DHT22;690;51.454;7.194;2024-01-30T04:35:00;7.30;1.00
1391;DHT22;690;51.454;7.194;2024-01-30T04:37:26;7.30;1.00
1391;DHT22;690;51.454;7.194;2024-01-30T04:39:55;7.30;1.00
1391;DHT22;690;51.454;7.194;2024-01-30T04:42:22;7.20;1.00
1391;DHT22;690;51.454;7.194;2024-01-30T04:44:49;7.20;1.00
1391;DHT22;690;51.454;7.194;2024-01-30T04:47:16;7.20;1.00
1391;DHT22;690;51.454;7.194;2024-01-30T04:49:43;7.20;1.00
1391;DHT22;690;51.454;7.194;2024-01-30T04:52:10;7.20;1.00
1391;DHT22;690;51.454;7.194;2024-01-30T04:54:37;7.20;1.00
1391;DHT22;690;51.454;7.194;2024-01-30T04:57:05;7.20;1.00
1391;DHT22;690;51.454;7.194;2024-01-30T04:59:35;7.20;1.00
1391;DHT22;690;51.454;7.194;2024-01-30T05:02:02;7.10;1.00
1391;DHT22;690;51.454;7.194;2024-01-30T05:04:29;7.20;1.00
1391;DHT22;690;51.454;7.194;2024-01-30T05:06:56;7.20;1.00
1391;DHT22;690;51.454;7.194;2024-01-30T05:09:23;7.20;1.00
1391;DHT22;690;51.454;7.194;2024-01-30T05:11:50;7.20;1.00
1391;DHT22;690;51.454;7.194;2024-01-30T05:14:18;7.30;1.00
1391;DHT22;690;51.454;7.194;2024-01-30T05:16:45;7.20;1.00
1391;DHT22;690;51.454;7.194;2024-01-30T05:19:13;7.20;1.00
1391;DHT22;690;51.454;7.194;2024-01-30T05:21:41;7.30;1.00
1391;DHT22;690;51.454;7.194;2024-01-30T05:24:08;7.30;1.00
1391;DHT22;690;51.454;7.194;2024-01-30T05:26:35;7.20;1.00
1391;DHT22;690;51.454;7.194;2024-01-30T05:29:03;7.20;1.00
1391;DHT22;690;51.454;7.194;2024-01-30T05:31:31;7.20;1.00
1391;DHT22;690;51.454;7.194;2024-01-30T05:33:58;7.20;1.00
1391;DHT22;690;51.454;7.194;2024-01-30T05:36:25;7.20;1.00
1391;DHT22;690;51.454;7.194;2024-01-30T05:38:52;7.20;1.00
1391;DHT22;690;51.454;7.194;2024-01-30T05:41:19;7.10;1.00
1391;DHT22;690;51.454;7.194;2024-01-30T05:43:46;7.20;1.00
1391;DHT22;690;51.454;7.194;2024-01-30T05:46:13;7.10;1.00
1391;DHT22;690;51.454;7.194;2024-01-30T05:48:41;7.10;1.00
1391;DHT22;690;51.454;7.194;2024-01-30T05:51:09;7.10;1.00
1391;DHT22;690;51.454;7.194;2024-01-30T05:53:35;7.00;1.00
1391;DHT22;690;51.454;7.194;2024-01-30T05:56:03;7.00;1.00
1391;DHT22;690;51.454;7.194;2024-01-30T05:58:30;7.00;1.00
1391;DHT22;690;51.454;7.194;2024-01-30T06:00:57;7.00;1.00
1391;DHT22;690;51.454;7.194;2024-01-30T06:03:24;7.00;1.00
1391;DHT22;690;51.454;7.194;2024-01-30T06:05:52;7.10;1.00
1391;DHT22;690;51.454;7.194;2024-01-30T06:08:20;7.10;1.00
1391;DHT22;690;51.454;7.194;2024-01-30T06:10:47;7.00;1.00
1391;DHT22;690;51.454;7.194;2024-01-30T06:13:14;7.00;1.00
1391;DHT22;690;51.454;7.194;2024-01-30T06:15:41;7.00;1.00
1391;DHT22;690;51.454;7.194;2024-01-30T06:18:08;7.00;1.00
1391;DHT22;690;51.454;7.194;2024-01-30T06:20:35;7.00;1.00
1391;DHT22;690;51.454;7.194;2024-01-30T06:23:03;7.00;1.00
1391;DHT22;690;51.454;7.194;2024-01-30T06:25:30;7.00;1.00
1391;DHT22;690;51.454;7.194;2024-01-30T06:27:57;7.00;1.00
1391;DHT22;690;51.454;7.194;2024-01-30T06:30:24;7.00;1.00
1391;DHT22;690;51.454;7.194;2024-01-30T06:32:51;7.00;1.00
1391;DHT22;690;51.454;7.194;2024-01-30T06:35:18;7.00;1.00
1391;DHT22;690;51.454;7.194;2024-01-30T06:37:45;7.00;1.00
1391;DHT22;690;51.454;7.194;2024-01-30T06:40:14;7.10;1.00
1391;DHT22;690;51.454;7.194;2024-01-30T06:42:41;7.10;1.00
1391;DHT22;690;51.454;7.194;2024-01-30T06:45:08;7.10;1.00
1391;DHT22;690;51.454;7.194;2024-01-30T06:47:35;7.10;1.00
1391;DHT22;690;51.454;7.194;2024-01-30T06:50:03;7.10;1.00
1391;DHT22;690;51.454;7.194;2024-01-30T06:52:30;7.10;1.00
1391;DHT22;690;51.454;7.194;2024-01-30T06:54:57;7.10;1.00
1391;DHT22;690;51.454;7.194;2024-01-30T06:57:25;7.10;1.00
1391;DHT22;690;51.454;7.194;2024-01-30T06:59:56;7.20;1.00
1391;DHT22;690;51.454;7.194;2024-01-30T07:02:23;7.20;1.00
1391;DHT22;690;51.454;7.194;2024-01-30T07:04:50;7.20;1.00
1391;DHT22;690;51.454;7.194;2024-01-30T07:07:17;7.20;1.00
1391;DHT22;690;51.454;7.194;2024-01-30T07:09:43;7.20;1.00
1391;DHT22;690;51.454;7.194;2024-01-30T07:12:10;7.20;1.00
1391;DHT22;690;51.454;7.194;2024-01-30T07:14:39;7.20;1.00
1391;DHT22;690;51.454;7.194;2024-01-30T07:17:06;7.20;1.00
1391;DHT22;690;51.454;7.194;2024-01-30T07:19:33;7.20;1.00
1391;DHT22;690;51.454;7.194;2024-01-30T07:22:00;7.30;1.00
1391;DHT22;690;51.454;7.194;2024-01-30T07:24:27;7.30;1.00
1391;DHT22;690;51.454;7.194;2024-01-30T07:26:54;7.30;1.00
1391;DHT22;690;51.454;7.194;2024-01-30T07:29:21;7.40;1.00
1391;DHT22;690;51.454;7.194;2024-01-30T07:31:49;7.40;1.00
1391;DHT22;690;51.454;7.194;2024-01-30T07:34:16;7.40;1.00
1391;DHT22;690;51.454;7.194;2024-01-30T07:36:43;7.50;1.00
1391;DHT22;690;51.454;7.194;2024-01-30T07:39:11;7.40;1.00
1391;DHT22;690;51.454;7.194;2024-01-30T07:41:38;7.50;1.00
1391;DHT22;690;51.454;7.194;2024-01-30T07:44:05;7.60;1.00
1391;DHT22;690;51.454;7.194;2024-01-30T07:46:32;7.60;1.00
1391;DHT22;690;51.454;7.194;2024-01-30T07:49:00;7.60;1.00
1391;DHT22;690;51.454;7.194;2024-01-30T07:51:28;7.70;1.00
1391;DHT22;690;51.454;7.194;2024-01-30T07:53:57;7.70;1.00
1391;DHT22;690;51.454;7.194;2024-01-30T07:56:24;7.70;1.00
1391;DHT22;690;51.454;7.194;2024-01-30T07:58:51;7.70;1.00
1391;DHT22;690;51.454;7.194;2024-01-30T08:01:18;7.70;1.00
1391;DHT22;690;51.454;7.194;2024-01-30T08:03:45;7.80;1.00
1391;DHT22;690;51.454;7.194;2024-01-30T08:06:14;7.80;1.00
1391;DHT22;690;51.454;7.194;2024-01-30T08:08:41;7.80;1.00
1391;DHT22;690;51.454;7.194;2024-01-30T08:11:08;7.90;1.00
1391;DHT22;690;51.454;7.194;2024-01-30T08:13:34;7.90;1.00
1391;DHT22;690;51.454;7.194;2024-01-30T08:16:01;7.90;1.00
1391;DHT22;690;51.454;7.194;2024-01-30T08:18:28;8.00;1.00
1391;DHT22;690;51.454;7.194;2024-01-30T08:20:55;8.10;1.00
1391;DHT22;690;51.454;7.194;2024-01-30T08:23:23;8.20;1.00
1391;DHT22;690;51.454;7.194;2024-01-30T08:25:50;8.20;1.00
1391;DHT22;690;51.454;7.194;2024-01-30T08:28:17;8.30;1.00
1391;DHT22;690;51.454;7.194;2024-01-30T08:30:44;8.30;1.00
1391;DHT22;690;51.454;7.194;2024-01-30T08:33:11;8.40;1.00
1391;DHT22;690;51.454;7.194;2024-01-30T08:35:38;8.40;1.00
1391;DHT22;690;51.454;7.194;2024-01-30T08:38:05;8.50;1.00
1391;DHT22;690;51.454;7.194;2024-01-30T08:40:33;8.60;1.00
1391;DHT22;690;51.454;7.194;2024-01-30T08:43:00;8.60;1.00
1391;DHT22;690;51.454;7.194;2024-01-30T08:45:27;8.60;1.00
1391;DHT22;690;51.454;7.194;2024-01-30T08:47:54;8.70;1.00
1391;DHT22;690;51.454;7.194;2024-01-30T08:50:21;8.80;1.00
1391;DHT22;690;51.454;7.194;2024-01-30T08:52:48;8.80;1.00
1391;DHT22;690;51.454;7.194;2024-01-30T08:55:15;8.90;1.00
1391;DHT22;690;51.454;7.194;2024-01-30T08:57:43;8.90;1.00
1391;DHT22;690;51.454;7.194;2024-01-30T09:00:11;9.00;1.00
1391;DHT22;690;51.454;7.194;2024-01-30T09:02:38;9.00;1.00
1391;DHT22;690;51.454;7.194;2024-01-30T09:05:05;9.10;1.00
1391;DHT22;690;51.454;7.194;2024-01-30T09:07:32;9.10;1.00
1391;DHT22;690;51.454;7.194;2024-01-30T09:09:59;9.10;1.00
1391;DHT22;690;51.454;7.194;2024-01-30T09:12:26;9.20;1.00
1391;DHT22;690;51.454;7.194;2024-01-30T09:14:54;9.30;1.00
1391;DHT22;690;51.454;7.194;2024-01-30T09:17:21;9.30;1.00
1391;DHT22;690;51.454;7.194;2024-01-30T09:19:48;9.40;1.00
1391;DHT22;690;51.454;7.194;2024-01-30T09:22:15;9.40;1.00
1391;DHT22;690;51.454;7.194;2024-01-30T09:24:42;9.50;1.00
1391;DHT22;690;51.454;7.194;2024-01-30T09:27:09;9.60;1.00
1391;DHT22;690;51.454;7.194;2024-01-30T09:29:35;9.60;1.00
1391;DHT22;690;51.454;7.194;2024-01-30T09:32:05;9.60;1.00
1391;DHT22;690;51.454;7.194;2024-01-30T09:34:32;9.60;1.00
1391;DHT22;690;51.454;7.194;2024-01-30T09:36:59;9.70;1.00
1391;DHT22;690;51.454;7.194;2024-01-30T09:39:26;9.70;1.00
1391;DHT22;690;51.454;7.194;2024-01-30T09:42:00;9.70;1.00
1391;DHT22;690;51.454;7.194;2024-01-30T09:44:29;9.70;1.00
1391;DHT22;690;51.454;7.194;2024-01-30T09:46:57;9.80;1.00
1391;DHT22;690;51.454;7.194;2024-01-30T09:49:32;9.80;1.00
1391;DHT22;690;51.454;7.194;2024-01-30T09:52:00;9.90;1.00
1391;DHT22;690;51.454;7.194;2024-01-30T09:54:29;10.00;1.00
1391;DHT22;690;51.454;7.194;2024-01-30T09:56:56;10.00;1.00
1391;DHT22;690;51.454;7.194;2024-01-30T09:59:23;10.20;1.00
1391;DHT22;690;51.454;7.194;2024-01-30T10:01:50;10.30;1.00
1391;DHT22;690;51.454;7.194;2024-01-30T10:04:18;10.40;1.00
1391;DHT22;690;51.454;7.194;2024-01-30T10:06:46;10.50;1.00
1391;DHT22;690;51.454;7.194;2024-01-30T10:09:14;10.60;1.00
1391;DHT22;690;51.454;7.194;2024-01-30T10:11:41;10.70;1.00
1391;DHT22;690;51.454;7.194;2024-01-30T10:14:08;10.80;1.00
1391;DHT22;690;51.454;7.194;2024-01-30T10:16:35;10.80;99.90
1391;DHT22;690;51.454;7.194;2024-01-30T10:19:02;10.80;99.90
1391;DHT22;690;51.454;7.194;2024-01-30T10:21:30;10.80;99.90
1391;DHT22;690;51.454;7.194;2024-01-30T10:23:58;10.80;99.90
1391;DHT22;690;51.454;7.194;2024-01-30T10:26:26;10.80;99.90
1391;DHT22;690;51.454;7.194;2024-01-30T10:28:54;10.90;99.90
1391;DHT22;690;51.454;7.194;2024-01-30T10:31:21;11.00;99.90
1391;DHT22;690;51.454;7.194;2024-01-30T10:33:49;11.00;99.90
1391;DHT22;690;51.454;7.194;2024-01-30T10:36:17;11.10;99.90
1391;DHT22;690;51.454;7.194;2024-01-30T10:38:45;11.30;99.90
1391;DHT22;690;51.454;7.194;2024-01-30T10:41:19;11.30;99.90
1391;DHT22;690;51.454;7.194;2024-01-30T10:43:58;11.30;99.90
1391;DHT22;690;51.454;7.194;2024-01-30T10:46:32;11.30;99.90
1391;DHT22;690;51.454;7.194;2024-01-30T10:48:59;11.40;99.90
1391;DHT22;690;51.454;7.194;2024-01-30T10:51:28;11.40;99.90
1391;DHT22;690;51.454;7.194;2024-01-30T10:53:56;11.50;99.90
1391;DHT22;690;51.454;7.194;2024-01-30T10:56:25;11.60;99.90
1391;DHT22;690;51.454;7.194;2024-01-30T10:58:53;11.70;99.90
1391;DHT22;690;51.454;7.194;2024-01-30T11:01:22;11.90;99.90
1391;DHT22;690;51.454;7.194;2024-01-30T11:03:50;12.00;99.90
1391;DHT22;690;51.454;7.194;2024-01-30T11:06:17;12.10;99.90
1391;DHT22;690;51.454;7.194;2024-01-30T11:08:45;12.10;99.90
1391;DHT22;690;51.454;7.194;2024-01-30T11:11:12;12.20;99.90
1391;DHT22;690;51.454;7.194;2024-01-30T11:13:40;12.20;99.90
1391;DHT22;690;51.454;7.194;2024-01-30T11:16:11;12.20;99.90
1391;DHT22;690;51.454;7.194;2024-01-30T11:18:39;12.20;99.90
1391;DHT22;690;51.454;7.194;2024-01-30T11:21:06;12.20;99.90
1391;DHT22;690;51.454;7.194;2024-01-30T11:23:34;12.20;99.90
1391;DHT22;690;51.454;7.194;2024-01-30T11:26:01;12.20;99.90
1391;DHT22;690;51.454;7.194;2024-01-30T11:28:33;12.20;99.90
1391;DHT22;690;51.454;7.194;2024-01-30T11:31:05;12.30;99.90
1391;DHT22;690;51.454;7.194;2024-01-30T11:33:33;12.40;99.90
1391;DHT22;690;51.454;7.194;2024-01-30T11:36:01;12.50;99.90
1391;DHT22;690;51.454;7.194;2024-01-30T11:38:28;12.50;99.90
1391;DHT22;690;51.454;7.194;2024-01-30T11:40:56;12.40;99.90
1391;DHT22;690;51.454;7.194;2024-01-30T11:43:23;12.30;99.90
1391;DHT22;690;51.454;7.194;2024-01-30T11:45:50;12.10;99.90
1391;DHT22;690;51.454;7.194;2024-01-30T11:48:19;12.00;99.90
1391;DHT22;690;51.454;7.194;2024-01-30T11:50:46;11.90;99.90
1391;DHT22;690;51.454;7.194;2024-01-30T11:53:13;11.90;99.90
1391;DHT22;690;51.454;7.194;2024-01-30T11:55:40;11.80;99.90
1391;DHT22;690;51.454;7.194;2024-01-30T11:58:08;11.80;99.90
1391;DHT22;690;51.454;7.194;2024-01-30T12:00:35;11.70;99.90
1391;DHT22;690;51.454;7.194;2024-01-30T12:03:03;11.70;99.90
1391;DHT22;690;51.454;7.194;2024-01-30T12:05:33;11.60;99.90
1391;DHT22;690;51.454;7.194;2024-01-30T12:08:01;11.70;99.90
1391;DHT22;690;51.454;7.194;2024-01-30T12:10:28;11.70;99.90
1391;DHT22;690;51.454;7.194;2024-01-30T12:12:55;11.70;99.90
1391;DHT22;690;51.454;7.194;2024-01-30T12:15:22;11.60;99.90
1391;DHT22;690;51.454;7.194;2024-01-30T12:17:49;11.50;99.90
1391;DHT22;690;51.454;7.194;2024-01-30T12:20:18;11.50;99.90
1391;DHT22;690;51.454;7.194;2024-01-30T12:22:48;11.50;99.90
1391;DHT22;690;51.454;7.194;2024-01-30T12:25:17;11.40;99.90
1391;DHT22;690;51.454;7.194;2024-01-30T12:27:45;11.40;99.90
1391;DHT22;690;51.454;7.194;2024-01-30T12:30:13;11.40;99.90
1391;DHT22;690;51.454;7.194;2024-01-30T12:32:41;11.30;99.90
1391;DHT22;690;51.454;7.194;2024-01-30T12:35:10;11.40;99.90
1391;DHT22;690;51.454;7.194;2024-01-30T12:37:37;11.30;99.90
1391;DHT22;690;51.454;7.194;2024-01-30T12:40:07;11.30;99.90
1391;DHT22;690;51.454;7.194;2024-01-30T12:42:35;11.30;99.90
1391;DHT22;690;51.454;7.194;2024-01-30T12:45:02;11.40;99.90
1391;DHT22;690;51.454;7.194;2024-01-30T12:47:30;11.40;99.90
1391;DHT22;690;51.454;7.194;2024-01-30T12:49:57;11.50;99.90
1391;DHT22;690;51.454;7.194;2024-01-30T12:52:24;11.60;99.90
1391;DHT22;690;51.454;7.194;2024-01-30T12:54:52;11.50;99.90
1391;DHT22;690;51.454;7.194;2024-01-30T12:57:20;11.50;99.90
1391;DHT22;690;51.454;7.194;2024-01-30T12:59:47;11.50;99.90
1391;DHT22;690;51.454;7.194;2024-01-30T13:02:15;11.40;99.90
1391;DHT22;690;51.454;7.194;2024-01-30T13:04:42;11.40;99.90
1391;DHT22;690;51.454;7.194;2024-01-30T13:07:09;11.30;99.90
1391;DHT22;690;51.454;7.194;2024-01-30T13:09:36;11.30;99.90
1391;DHT22;690;51.454;7.194;2024-01-30T13:12:04;11.30;99.90
1391;DHT22;690;51.454;7.194;2024-01-30T13:14:32;11.30;99.90
1391;DHT22;690;51.454;7.194;2024-01-30T13:16:59;11.30;99.90
1391;DHT22;690;51.454;7.194;2024-01-30T13:19:26;11.20;99.90
1391;DHT22;690;51.454;7.194;2024-01-30T13:21:53;11.10;99.90
1391;DHT22;690;51.454;7.194;2024-01-30T13:24:20;11.10;99.90
1391;DHT22;690;51.454;7.194;2024-01-30T13:26:48;11.10;99.90
1391;DHT22;690;51.454;7.194;2024-01-30T13:29:15;11.10;99.90
1391;DHT22;690;51.454;7.194;2024-01-30T13:31:43;11.10;99.90
1391;DHT22;690;51.454;7.194;2024-01-30T13:34:12;11.00;99.90
1391;DHT22;690;51.454;7.194;2024-01-30T13:36:39;11.00;99.90
1391;DHT22;690;51.454;7.194;2024-01-30T13:39:06;11.00;99.90
1391;DHT22;690;51.454;7.194;2024-01-30T13:41:34;10.90;99.90
1391;DHT22;690;51.454;7.194;2024-01-30T13:44:01;10.90;99.90
1391;DHT22;690;51.454;7.194;2024-01-30T13:46:29;10.80;99.90
1391;DHT22;690;51.454;7.194;2024-01-30T13:48:57;10.80;99.90
1391;DHT22;690;51.454;7.194;2024-01-30T13:51:24;10.80;99.90
1391;DHT22;690;51.454;7.194;2024-01-30T13:53:51;10.80;99.90
1391;DHT22;690;51.454;7.194;2024-01-30T13:56:19;10.80;99.90
1391;DHT22;690;51.454;7.194;2024-01-30T13:58:47;10.80;99.90
1391;DHT22;690;51.454;7.194;2024-01-30T14:01:15;10.80;99.90
1391;DHT22;690;51.454;7.194;2024-01-30T14:03:42;10.70;99.90
1391;DHT22;690;51.454;7.194;2024-01-30T14:06:11;10.60;99.90
1391;DHT22;690;51.454;7.194;2024-01-30T14:08:38;10.60;99.90
1391;DHT22;690;51.454;7.194;2024-01-30T14:11:05;10.70;99.90
1391;DHT22;690;51.454;7.194;2024-01-30T14:13:32;10.60;99.90
1391;DHT22;690;51.454;7.194;2024-01-30T14:16:00;10.60;1.00
1391;DHT22;690;51.454;7.194;2024-01-30T14:18:27;10.60;1.00
1391;DHT22;690;51.454;7.194;2024-01-30T14:20:54;10.60;1.00
1391;DHT22;690;51.454;7.194;2024-01-30T14:23:22;10.60;1.00
1391;DHT22;690;51.454;7.194;2024-01-30T14:25:49;10.60;1.00
1391;DHT22;690;51.454;7.194;2024-01-30T14:28:18;10.60;1.00
1391;DHT22;690;51.454;7.194;2024-01-30T14:30:45;10.60;1.00
1391;DHT22;690;51.454;7.194;2024-01-30T14:33:12;10.60;1.00
1391;DHT22;690;51.454;7.194;2024-01-30T14:35:39;10.70;1.00
1391;DHT22;690;51.454;7.194;2024-01-30T14:38:06;10.80;1.00
1391;DHT22;690;51.454;7.194;2024-01-30T14:40:34;10.80;1.00
1391;DHT22;690;51.454;7.194;2024-01-30T14:43:01;10.80;1.00
1391;DHT22;690;51.454;7.194;2024-01-30T14:45:29;10.80;1.00
1391;DHT22;690;51.454;7.194;2024-01-30T14:47:57;10.80;1.00
1391;DHT22;690;51.454;7.194;2024-01-30T14:50:25;10.80;1.00
1391;DHT22;690;51.454;7.194;2024-01-30T14:52:53;10.80;1.00
1391;DHT22;690;51.454;7.194;2024-01-30T14:55:20;10.70;1.00
1391;DHT22;690;51.454;7.194;2024-01-30T14:57:49;10.70;1.00
1391;DHT22;690;51.454;7.194;2024-01-30T15:00:16;10.60;1.00
1391;DHT22;690;51.454;7.194;2024-01-30T15:02:44;10.60;1.00
1391;DHT22;690;51.454;7.194;2024-01-30T15:05:12;10.50;1.00
1391;DHT22;690;51.454;7.194;2024-01-30T15:07:39;10.50;1.00
1391;DHT22;690;51.454;7.194;2024-01-30T15:10:07;10.50;1.00
1391;DHT22;690;51.454;7.194;2024-01-30T15:12:35;10.50;1.00
1391;DHT22;690;51.454;7.194;2024-01-30T15:15:04;10.50;1.00
1391;DHT22;690;51.454;7.194;2024-01-30T15:17:31;10.40;1.00
1391;DHT22;690;51.454;7.194;2024-01-30T15:19:58;10.30;1.00
1391;DHT22;690;51.454;7.194;2024-01-30T15:22:26;10.20;1.00
1391;DHT22;690;51.454;7.194;2024-01-30T15:24:53;10.10;1.00
1391;DHT22;690;51.454;7.194;2024-01-30T15:27:20;9.90;1.00
1391;DHT22;690;51.454;7.194;2024-01-30T15:29:47;9.90;1.00
1391;DHT22;690;51.454;7.194;2024-01-30T15:32:15;9.90;1.00
1391;DHT22;690;51.454;7.194;2024-01-30T15:34:42;9.90;1.00
1391;DHT22;690;51.454;7.194;2024-01-30T15:37:09;9.90;1.00
1391;DHT22;690;51.454;7.194;2024-01-30T15:39:36;9.90;1.00
1391;DHT22;690;51.454;7.194;2024-01-30T15:42:04;9.80;1.00
1391;DHT22;690;51.454;7.194;2024-01-30T15:44:31;9.80;99.90
1391;DHT22;690;51.454;7.194;2024-01-30T15:46:58;9.70;99.90
1391;DHT22;690;51.454;7.194;2024-01-30T15:49:26;9.60;99.90
1391;DHT22;690;51.454;7.194;2024-01-30T15:51:53;9.50;99.90
1391;DHT22;690;51.454;7.194;2024-01-30T15:54:20;9.50;99.90
1391;DHT22;690;51.454;7.194;2024-01-30T15:56:47;9.40;99.90
1391;DHT22;690;51.454;7.194;2024-01-30T15:59:15;9.40;99.90
1391;DHT22;690;51.454;7.194;2024-01-30T16:01:42;9.30;99.90
1391;DHT22;690;51.454;7.194;2024-01-30T16:04:13;9.30;99.90
1391;DHT22;690;51.454;7.194;2024-01-30T16:06:42;9.30;99.90
1391;DHT22;690;51.454;7.194;2024-01-30T16:09:09;9.20;99.90
1391;DHT22;690;51.454;7.194;2024-01-30T16:11:36;9.20;99.90
1391;DHT22;690;51.454;7.194;2024-01-30T16:14:04;9.10;99.90
1391;DHT22;690;51.454;7.194;2024-01-30T16:16:32;9.10;99.90
1391;DHT22;690;51.454;7.194;2024-01-30T16:18:59;9.10;99.90
1391;DHT22;690;51.454;7.194;2024-01-30T16:21:26;9.20;99.90
1391;DHT22;690;51.454;7.194;2024-01-30T16:23:54;9.10;99.90
1391;DHT22;690;51.454;7.194;2024-01-30T16:26:23;9.00;99.90
1391;DHT22;690;51.454;7.194;2024-01-30T16:28:50;9.10;99.90
1391;DHT22;690;51.454;7.194;2024-01-30T16:31:17;9.10;99.90
1391;DHT22;690;51.454;7.194;2024-01-30T16:33:46;9.00;99.90
1391;DHT22;690;51.454;7.194;2024-01-30T16:36:13;9.00;99.90
1391;DHT22;690;51.454;7.194;2024-01-30T16:38:40;9.00;99.90
1391;DHT22;690;51.454;7.194;2024-01-30T16:41:08;9.00;99.90
1391;DHT22;690;51.454;7.194;2024-01-30T16:43:35;9.00;99.90